createdAt,value
2023-05-13T00:01:20.884Z,98478.75
2023-05-13T00:03:47.721Z,98478.34
2023-05-13T00:06:14.772Z,98488.75
2023-05-13T00:08:41.478Z,98477.38
2023-05-13T00:11:08.231Z,98480.22
2023-05-13T00:13:34.939Z,98480.94
2023-05-13T00:16:02.876Z,98484.34
2023-05-13T00:18:29.908Z,98488.38
2023-05-13T00:20:56.625Z,98483.94
2023-05-13T00:23:23.258Z,98483.28
2023-05-13T00:25:50.042Z,98478.06
2023-05-13T00:28:16.924Z,98484.28
2023-05-13T00:30:45.467Z,98488.06
2023-05-13T00:33:12.298Z,98487.31
2023-05-13T00:35:38.947Z,98498.16
2023-05-13T00:38:05.647Z,98493.75
2023-05-13T00:40:34.690Z,98500.19
2023-05-13T00:43:01.432Z,98498.38
2023-05-13T00:45:28.399Z,98494.19
2023-05-13T00:47:55.122Z,98488.06
2023-05-13T00:50:22.114Z,98495.91
2023-05-13T00:52:50.969Z,98499.41
2023-05-13T00:55:17.889Z,98500.22
2023-05-13T00:57:44.612Z,98495.84
2023-05-13T01:00:12.231Z,98504.84
2023-05-13T01:02:43.195Z,98505.94
2023-05-13T01:05:24.821Z,98506.94
2023-05-13T01:08:20.217Z,98502.53
2023-05-13T01:10:51.371Z,98506.19
2023-05-13T01:13:24.433Z,98505.31
2023-05-13T01:16:01.730Z,98503.63
2023-05-13T01:18:36.105Z,98502.09
2023-05-13T01:21:04.909Z,98504.56
2023-05-13T01:23:32.196Z,98510.97
2023-05-13T01:25:59.496Z,98507.41
2023-05-13T01:28:26.832Z,98507.41
2023-05-13T01:30:57.099Z,98503.88
2023-05-13T01:33:26.360Z,98502.44
2023-05-13T01:35:53.432Z,98500.69
2023-05-13T01:38:21.735Z,98500.69
2023-05-13T01:40:53.279Z,98505.41
2023-05-13T01:43:20.003Z,98508.28
2023-05-13T01:45:47.384Z,98498.53
2023-05-13T01:48:14.710Z,98501.38
2023-05-13T01:50:44.480Z,98505.03
2023-05-13T01:53:11.866Z,98507.78
2023-05-13T01:55:38.941Z,98513.81
2023-05-13T01:58:05.866Z,98509.38
2023-05-13T02:00:32.550Z,98517.53
2023-05-13T02:02:59.317Z,98517.53
2023-05-13T02:05:26.150Z,98514.09
2023-05-13T02:07:53.934Z,98511.78
2023-05-13T02:10:20.830Z,98503.22
2023-05-13T02:12:50.135Z,98515.00
2023-05-13T02:15:18.227Z,98518.38
2023-05-13T02:17:45.006Z,98513.19
2023-05-13T02:20:12.641Z,98517.78
2023-05-13T02:22:39.302Z,98511.72
2023-05-13T02:25:07.651Z,98515.50
2023-05-13T02:27:37.014Z,98515.22
2023-05-13T02:30:04.690Z,98510.63
2023-05-13T02:32:31.832Z,98514.28
2023-05-13T02:34:58.474Z,98505.41
2023-05-13T02:37:25.076Z,98504.63
2023-05-13T02:39:59.090Z,98510.00
2023-05-13T02:42:25.857Z,98508.28
2023-05-13T02:44:52.574Z,98502.16
2023-05-13T02:47:20.024Z,98506.50
2023-05-13T02:49:46.810Z,98504.06
2023-05-13T02:52:13.467Z,98505.09
2023-05-13T02:54:40.185Z,98505.91
2023-05-13T02:57:07.111Z,98506.13
2023-05-13T02:59:34.235Z,98507.25
2023-05-13T03:02:00.899Z,98507.25
2023-05-13T03:04:27.558Z,98510.88
2023-05-13T03:06:54.309Z,98514.41
2023-05-13T03:09:21.049Z,98519.56
2023-05-13T03:11:48.020Z,98503.84
2023-05-13T03:14:14.710Z,98516.28
2023-05-13T03:16:41.385Z,98502.34
2023-05-13T03:19:08.166Z,98516.28
2023-05-13T03:21:34.938Z,98513.75
2023-05-13T03:24:01.721Z,98516.50
2023-05-13T03:26:28.386Z,98511.25
2023-05-13T03:28:55.562Z,98516.50
2023-05-13T03:31:23.086Z,98512.25
2023-05-13T03:33:49.868Z,98521.88
2023-05-13T03:36:16.552Z,98529.84
2023-05-13T03:38:43.286Z,98535.22
2023-05-13T03:41:10.110Z,98529.03
2023-05-13T03:43:36.906Z,98534.53
2023-05-13T03:46:08.082Z,98539.13
2023-05-13T03:48:34.710Z,98535.53
2023-05-13T03:51:02.840Z,98539.31
2023-05-13T03:53:29.927Z,98540.28
2023-05-13T03:55:57.565Z,98533.31
2023-05-13T03:58:24.195Z,98532.56
2023-05-13T04:00:50.897Z,98534.91
2023-05-13T04:03:18.584Z,98532.19
2023-05-13T04:05:49.200Z,98538.34
2023-05-13T04:08:15.934Z,98537.31
2023-05-13T04:10:43.286Z,98538.16
2023-05-13T04:13:11.271Z,98544.25
2023-05-13T04:15:37.942Z,98534.47
2023-05-13T04:18:06.093Z,98533.53
2023-05-13T04:20:34.371Z,98529.13
2023-05-13T04:23:01.807Z,98536.00
2023-05-13T04:25:29.465Z,98537.84
2023-05-13T04:27:56.137Z,98536.63
2023-05-13T04:30:28.622Z,98546.06
2023-05-13T04:32:55.792Z,98538.78
2023-05-13T04:35:22.924Z,98544.72
2023-05-13T04:37:53.739Z,98542.03
2023-05-13T04:40:21.561Z,98554.22
2023-05-13T04:42:54.537Z,98553.09
2023-05-13T04:45:25.772Z,98561.66
2023-05-13T04:47:52.414Z,98563.22
2023-05-13T04:50:19.456Z,98561.97
2023-05-13T04:52:47.539Z,98556.44
2023-05-13T04:55:15.062Z,98568.00
2023-05-13T04:57:42.459Z,98558.78
2023-05-13T05:00:11.085Z,98553.22
2023-05-13T05:02:39.375Z,98552.78
2023-05-13T05:05:06.530Z,98552.78
2023-05-13T05:07:40.222Z,98563.03
2023-05-13T05:10:08.533Z,98557.78
2023-05-13T05:12:38.201Z,98553.56
2023-05-13T05:15:06.260Z,98555.97
2023-05-13T05:17:34.047Z,98564.22
2023-05-13T05:20:02.634Z,98569.41
2023-05-13T05:22:29.491Z,98568.50
2023-05-13T05:24:56.710Z,98568.53
2023-05-13T05:27:24.973Z,98568.72
2023-05-13T05:29:52.086Z,98580.69
2023-05-13T05:32:19.539Z,98577.69
2023-05-13T05:34:46.325Z,98577.03
2023-05-13T05:37:13.147Z,98574.81
2023-05-13T05:39:41.111Z,98571.88
2023-05-13T05:42:08.730Z,98575.63
2023-05-13T05:44:36.167Z,98577.59
2023-05-13T05:47:03.201Z,98575.50
2023-05-13T05:49:32.602Z,98573.97
2023-05-13T05:51:59.314Z,98569.19
2023-05-13T05:54:28.128Z,98575.34
2023-05-13T05:56:54.857Z,98570.47
2023-05-13T05:59:21.579Z,98568.53
2023-05-13T06:01:48.865Z,98562.94
2023-05-13T06:04:15.733Z,98567.56
2023-05-13T06:06:42.446Z,98560.72
2023-05-13T06:09:09.089Z,98567.53
2023-05-13T06:11:35.801Z,98559.44
2023-05-13T06:14:03.330Z,98569.50
2023-05-13T06:16:30.240Z,98556.38
2023-05-13T06:18:57.189Z,98564.06
2023-05-13T06:21:25.254Z,98571.34
2023-05-13T06:23:51.951Z,98564.41
2023-05-13T06:26:20.829Z,98577.59
2023-05-13T06:28:47.467Z,98570.91
2023-05-13T06:31:15.064Z,98567.34
2023-05-13T06:33:43.591Z,98565.00
2023-05-13T06:36:10.276Z,98569.25
2023-05-13T06:38:37.099Z,98567.25
2023-05-13T06:41:03.994Z,98564.94
2023-05-13T06:43:36.084Z,98557.59
2023-05-13T06:46:13.120Z,98557.94
2023-05-13T06:48:39.952Z,98553.50
2023-05-13T06:51:07.081Z,98547.06
2023-05-13T06:53:33.801Z,98544.06
2023-05-13T06:56:00.468Z,98540.53
2023-05-13T06:58:27.761Z,98530.81
2023-05-13T07:00:54.487Z,98529.81
2023-05-13T07:03:21.214Z,98530.00
2023-05-13T07:05:47.959Z,98531.47
2023-05-13T07:08:17.821Z,98524.41
2023-05-13T07:10:44.973Z,98529.31
2023-05-13T07:13:12.413Z,98518.53
2023-05-13T07:15:39.183Z,98524.16
2023-05-13T07:18:05.927Z,98528.47
2023-05-13T07:20:32.839Z,98528.59
2023-05-13T07:22:59.495Z,98520.63
2023-05-13T07:25:26.210Z,98526.06
2023-05-13T07:27:52.933Z,98522.84
2023-05-13T07:30:19.751Z,98512.50
2023-05-13T07:32:46.740Z,98513.78
2023-05-13T07:35:13.740Z,98513.69
2023-05-13T07:37:40.520Z,98521.13
2023-05-13T07:40:10.654Z,98508.44
2023-05-13T07:42:37.596Z,98508.88
2023-05-13T07:45:04.788Z,98511.50
2023-05-13T07:47:31.944Z,98506.94
2023-05-13T07:49:58.867Z,98498.13
2023-05-13T07:52:26.291Z,98500.50
2023-05-13T07:54:52.991Z,98492.69
2023-05-13T07:57:19.686Z,98495.88
2023-05-13T07:59:46.340Z,98504.63
2023-05-13T08:02:13.086Z,98489.88
2023-05-13T08:04:40.109Z,98487.94
2023-05-13T08:07:06.884Z,98494.66
2023-05-13T08:09:33.532Z,98491.22
2023-05-13T08:12:00.570Z,98495.31
2023-05-13T08:14:27.291Z,98480.84
2023-05-13T08:16:54.437Z,98475.47
2023-05-13T08:19:21.483Z,98489.59
2023-05-13T08:21:48.374Z,98486.03
2023-05-13T08:24:15.031Z,98501.91
2023-05-13T08:26:41.985Z,98480.81
2023-05-13T08:29:12.783Z,98483.25
2023-05-13T08:31:39.422Z,98480.22
2023-05-13T08:34:06.437Z,98479.72
2023-05-13T08:36:33.877Z,98473.50
2023-05-13T08:39:01.361Z,98471.84
2023-05-13T08:41:29.865Z,98477.47
2023-05-13T08:44:00.714Z,98472.94
2023-05-13T08:46:28.891Z,98474.56
2023-05-13T08:48:55.997Z,98463.16
2023-05-13T08:51:22.816Z,98461.19
2023-05-13T08:53:51.606Z,98462.63
2023-05-13T08:56:18.387Z,98472.38
2023-05-13T08:58:44.990Z,98477.53
2023-05-13T09:01:12.470Z,98479.75
2023-05-13T09:03:52.383Z,98479.88
2023-05-13T09:06:19.034Z,98467.38
2023-05-13T09:08:45.983Z,98474.13
2023-05-13T09:11:16.294Z,98476.88
2023-05-13T09:13:44.605Z,98490.63
2023-05-13T09:16:14.161Z,98480.97
2023-05-13T09:18:42.135Z,98489.59
2023-05-13T09:21:24.825Z,98489.38
2023-05-13T09:23:56.365Z,98484.13
2023-05-13T09:26:30.236Z,98492.91
2023-05-13T09:29:21.299Z,98488.06
2023-05-13T09:31:54.928Z,98502.97
2023-05-13T09:34:26.857Z,98491.03
2023-05-13T09:37:08.096Z,98495.56
2023-05-13T09:39:40.146Z,98495.53
2023-05-13T09:42:15.673Z,98493.44
2023-05-13T09:44:48.862Z,98497.06
2023-05-13T09:47:17.004Z,98485.53
2023-05-13T09:49:44.893Z,98483.84
2023-05-13T09:52:17.115Z,98487.41
2023-05-13T09:54:44.296Z,98482.06
2023-05-13T09:57:13.642Z,98485.09
2023-05-13T09:59:40.617Z,98484.41
2023-05-13T10:02:08.544Z,98481.66
2023-05-13T10:04:35.215Z,98491.59
2023-05-13T10:07:09.604Z,98507.78
2023-05-13T10:09:37.865Z,98502.59
2023-05-13T10:12:07.520Z,98500.34
2023-05-13T10:14:36.893Z,98501.41
2023-05-13T10:17:05.277Z,98495.47
2023-05-13T10:19:32.421Z,98486.13
2023-05-13T10:21:59.326Z,98488.97
2023-05-13T10:24:28.848Z,98493.03
2023-05-13T10:26:56.331Z,98486.44
2023-05-13T10:29:24.804Z,98498.84
2023-05-13T10:31:51.813Z,98485.66
2023-05-13T10:34:18.554Z,98496.69
2023-05-13T10:37:03.708Z,98493.50
2023-05-13T10:40:08.625Z,98480.31
2023-05-13T10:42:40.908Z,98484.34
2023-05-13T10:45:10.964Z,98482.63
2023-05-13T10:47:38.313Z,98492.84
2023-05-13T10:50:25.882Z,98471.72
2023-05-13T10:52:57.107Z,98476.47
2023-05-13T10:55:26.123Z,98481.91
2023-05-13T10:58:04.667Z,98478.63
2023-05-13T11:00:31.974Z,98485.78
2023-05-13T11:03:29.750Z,98482.91
2023-05-13T11:06:01.031Z,98488.34
2023-05-13T11:08:40.813Z,98476.84
2023-05-13T11:11:23.274Z,98473.66
2023-05-13T11:13:51.321Z,98486.78
2023-05-13T11:16:23.090Z,98484.69
2023-05-13T11:18:51.891Z,98476.22
2023-05-13T11:21:30.116Z,98462.38
2023-05-13T11:23:59.022Z,98459.47
2023-05-13T11:26:25.809Z,98456.25
2023-05-13T11:29:03.512Z,98446.91
2023-05-13T11:31:43.563Z,98442.25
2023-05-13T11:34:13.005Z,98441.03
2023-05-13T11:36:41.934Z,98439.66
2023-05-13T11:39:21.371Z,98441.63
2023-05-13T11:41:53.287Z,98442.31
2023-05-13T11:44:21.551Z,98444.38
2023-05-13T11:46:59.835Z,98439.56
2023-05-13T11:49:32.872Z,98448.97
2023-05-13T11:52:03.368Z,98464.53
2023-05-13T11:54:30.297Z,98452.47
2023-05-13T11:56:57.080Z,98445.16
2023-05-13T11:59:24.634Z,98441.44
2023-05-13T12:02:02.003Z,98445.16
2023-05-13T12:04:30.698Z,98450.03
2023-05-13T12:06:58.042Z,98456.41
2023-05-13T12:09:25.476Z,98452.41
2023-05-13T12:11:53.771Z,98459.31
2023-05-13T12:14:21.554Z,98453.03
2023-05-13T12:16:48.827Z,98455.38
2023-05-13T12:19:15.654Z,98445.38
2023-05-13T12:21:42.557Z,98446.06
2023-05-13T12:24:22.082Z,98443.81
2023-05-13T12:26:49.381Z,98456.91
2023-05-13T12:29:16.296Z,98456.38
2023-05-13T12:32:03.919Z,98463.63
2023-05-13T12:34:32.473Z,98471.34
2023-05-13T12:37:11.016Z,98460.03
2023-05-13T12:39:38.315Z,98457.56
2023-05-13T12:42:05.192Z,98461.97
2023-05-13T12:44:32.053Z,98456.25
2023-05-13T12:46:59.248Z,98445.72
2023-05-13T12:49:26.280Z,98448.47
2023-05-13T12:51:52.949Z,98448.03
2023-05-13T12:54:19.632Z,98440.81
2023-05-13T12:56:46.520Z,98444.88
2023-05-13T12:59:14.371Z,98444.13
2023-05-13T13:01:42.779Z,98455.44
2023-05-13T13:04:12.722Z,98447.69
2023-05-13T13:06:39.704Z,98448.59
2023-05-13T13:09:06.400Z,98443.44
2023-05-13T13:11:33.074Z,98446.56
2023-05-13T13:13:59.747Z,98454.81
2023-05-13T13:16:32.946Z,98446.84
2023-05-13T13:19:01.793Z,98443.94
2023-05-13T13:21:28.899Z,98459.13
2023-05-13T13:23:55.567Z,98436.06
2023-05-13T13:26:23.173Z,98439.59
2023-05-13T13:28:52.804Z,98430.75
2023-05-13T13:31:19.455Z,98424.09
2023-05-13T13:33:46.172Z,98436.81
2023-05-13T13:36:15.142Z,98429.41
2023-05-13T13:38:41.780Z,98429.41
2023-05-13T13:41:08.538Z,98436.34
2023-05-13T13:43:35.212Z,98429.59
2023-05-13T13:46:02.232Z,98420.88
2023-05-13T13:48:28.953Z,98430.94
2023-05-13T13:50:55.567Z,98414.47
2023-05-13T13:53:22.263Z,98414.75
2023-05-13T13:55:49.011Z,98414.22
2023-05-13T13:58:15.771Z,98407.97
2023-05-13T14:00:42.470Z,98398.44
2023-05-13T14:03:09.292Z,98410.69
2023-05-13T14:05:39.077Z,98400.66
2023-05-13T14:08:08.459Z,98398.03
2023-05-13T14:10:35.218Z,98398.31
2023-05-13T14:13:01.988Z,98396.22
2023-05-13T14:15:30.585Z,98397.06
2023-05-13T14:17:57.616Z,98410.56
2023-05-13T14:20:25.024Z,98397.72
2023-05-13T14:22:51.777Z,98400.25
2023-05-13T14:25:18.446Z,98408.81
2023-05-13T14:27:45.390Z,98412.22
2023-05-13T14:30:15.152Z,98410.41
2023-05-13T14:32:45.595Z,98416.34
2023-05-13T14:35:13.132Z,98419.84
2023-05-13T14:37:41.463Z,98424.25
2023-05-13T14:40:11.113Z,98425.13
2023-05-13T14:42:37.886Z,98423.72
2023-05-13T14:45:04.912Z,98428.91
2023-05-13T14:47:31.792Z,98426.81
2023-05-13T14:49:58.634Z,98418.38
2023-05-13T14:52:25.482Z,98425.59
2023-05-13T14:54:52.216Z,98422.59
2023-05-13T14:57:19.087Z,98415.69
2023-05-13T14:59:45.719Z,98418.44
2023-05-13T15:02:13.821Z,98406.25
2023-05-13T15:04:40.584Z,98417.13
2023-05-13T15:07:07.429Z,98411.19
2023-05-13T15:09:34.080Z,98413.16
2023-05-13T15:12:00.877Z,98411.44
2023-05-13T15:14:28.254Z,98417.84
2023-05-13T15:16:55.106Z,98419.22
2023-05-13T15:19:21.827Z,98427.91
2023-05-13T15:21:48.444Z,98433.13
2023-05-13T15:24:15.220Z,98437.41
2023-05-13T15:26:41.865Z,98441.91
2023-05-13T15:29:08.527Z,98432.38
2023-05-13T15:31:35.414Z,98443.50
2023-05-13T15:34:03.178Z,98437.22
2023-05-13T15:36:29.849Z,98435.94
2023-05-13T15:39:10.799Z,98427.94
2023-05-13T15:41:37.674Z,98434.38
2023-05-13T15:44:05.233Z,98423.50
2023-05-13T15:46:33.566Z,98418.00
2023-05-13T15:49:01.051Z,98410.03
2023-05-13T15:51:28.291Z,98419.06
2023-05-13T15:53:54.942Z,98414.22
2023-05-13T15:56:25.699Z,98441.44
2023-05-13T15:58:52.882Z,98459.03
2023-05-13T16:01:19.586Z,98455.63
2023-05-13T16:03:46.318Z,98471.69
2023-05-13T16:06:13.373Z,98471.91
2023-05-13T16:08:39.996Z,98482.00
2023-05-13T16:11:06.721Z,98471.59
2023-05-13T16:13:33.447Z,98463.19
2023-05-13T16:16:00.216Z,98471.31
2023-05-13T16:18:26.956Z,98476.78
2023-05-13T16:20:54.854Z,98470.03
2023-05-13T16:23:21.562Z,98476.81
2023-05-13T16:25:48.198Z,98457.53
2023-05-13T16:28:15.484Z,98459.00
2023-05-13T16:30:42.567Z,98455.22
2023-05-13T16:33:09.581Z,98459.50
2023-05-13T16:35:38.822Z,98455.28
2023-05-13T16:38:05.929Z,98455.00
2023-05-13T16:40:33.289Z,98459.72
2023-05-13T16:43:03.264Z,98465.19
2023-05-13T16:45:30.949Z,98462.41
2023-05-13T16:47:57.774Z,98465.91
2023-05-13T16:50:24.800Z,98469.72
2023-05-13T16:52:54.852Z,98468.28
2023-05-13T16:55:22.395Z,98470.31
2023-05-13T16:57:49.099Z,98471.50
2023-05-13T17:00:16.106Z,98477.13
2023-05-13T17:02:43.264Z,98475.63
2023-05-13T17:05:10.017Z,98466.50
2023-05-13T17:07:36.734Z,98459.72
2023-05-13T17:10:03.803Z,98465.47
2023-05-13T17:12:30.571Z,98461.41
2023-05-13T17:14:57.248Z,98461.47
2023-05-13T17:17:23.983Z,98457.16
2023-05-13T17:19:50.656Z,98454.56
2023-05-13T17:22:17.379Z,98462.41
2023-05-13T17:24:44.044Z,98460.09
2023-05-13T17:27:10.892Z,98464.09
2023-05-13T17:29:37.688Z,98459.25
2023-05-13T17:32:05.196Z,98463.75
2023-05-13T17:34:31.850Z,98461.84
2023-05-13T17:36:58.540Z,98465.59
2023-05-13T17:39:25.372Z,98468.06
2023-05-13T17:41:52.198Z,98463.97
2023-05-13T17:44:19.959Z,98456.97
2023-05-13T17:46:46.725Z,98468.72
2023-05-13T17:49:19.028Z,98469.06
2023-05-13T17:51:45.782Z,98452.91
2023-05-13T17:54:12.472Z,98463.16
2023-05-13T17:56:39.215Z,98460.06
2023-05-13T17:59:06.777Z,98464.28
2023-05-13T18:01:33.466Z,98454.69
2023-05-13T18:04:00.756Z,98459.50
2023-05-13T18:06:27.480Z,98464.56
2023-05-13T18:08:54.386Z,98471.91
2023-05-13T18:11:23.761Z,98470.19
2023-05-13T18:13:58.580Z,98468.78
2023-05-13T18:16:25.346Z,98470.66
2023-05-13T18:18:52.104Z,98474.06
2023-05-13T18:21:18.889Z,98462.81
2023-05-13T18:23:46.496Z,98472.47
2023-05-13T18:26:16.317Z,98478.16
2023-05-13T18:28:45.756Z,98483.28
2023-05-13T18:31:12.562Z,98485.38
2023-05-13T18:33:45.484Z,98489.91
2023-05-13T18:36:12.221Z,98482.16
2023-05-13T18:38:41.790Z,98488.31
2023-05-13T18:41:09.222Z,98489.91
2023-05-13T18:43:35.882Z,98493.84
2023-05-13T18:46:02.603Z,98493.25
2023-05-13T18:48:29.347Z,98489.44
2023-05-13T18:50:58.723Z,98497.19
2023-05-13T18:53:25.392Z,98491.28
2023-05-13T18:55:52.256Z,98499.53
2023-05-13T18:58:21.836Z,98499.16
2023-05-13T19:00:48.656Z,98496.78
2023-05-13T19:03:15.550Z,98505.09
2023-05-13T19:05:42.321Z,98514.06
2023-05-13T19:08:08.977Z,98518.47
2023-05-13T19:10:40.008Z,98514.31
2023-05-13T19:13:07.515Z,98525.31
2023-05-13T19:15:34.253Z,98526.72
2023-05-13T19:18:01.276Z,98534.31
2023-05-13T19:20:29.731Z,98527.38
2023-05-13T19:22:56.419Z,98531.84
2023-05-13T19:25:26.062Z,98540.50
2023-05-13T19:27:52.919Z,98550.25
2023-05-13T19:30:19.643Z,98546.00
2023-05-13T19:32:46.707Z,98559.50
2023-05-13T19:35:13.379Z,98560.22
2023-05-13T19:37:40.325Z,98569.28
2023-05-13T19:40:10.732Z,98575.53
2023-05-13T19:42:37.818Z,98572.28
2023-05-13T19:45:07.533Z,98568.63
2023-05-13T19:47:37.461Z,98575.44
2023-05-13T19:50:04.751Z,98585.94
2023-05-13T19:52:31.462Z,98583.34
2023-05-13T19:54:58.556Z,98591.16
2023-05-13T19:57:28.012Z,98598.72
2023-05-13T19:59:55.982Z,98598.06
2023-05-13T20:02:22.766Z,98593.47
2023-05-13T20:04:49.498Z,98601.53
2023-05-13T20:07:16.200Z,98602.53
2023-05-13T20:09:43.007Z,98591.16
2023-05-13T20:12:09.838Z,98590.56
2023-05-13T20:14:47.011Z,98591.63
2023-05-13T20:17:19.417Z,98596.69
2023-05-13T20:19:49.593Z,98590.38
2023-05-13T20:22:17.815Z,98598.84
2023-05-13T20:24:48.866Z,98598.25
2023-05-13T20:27:16.899Z,98603.03
2023-05-13T20:29:45.712Z,98599.75
2023-05-13T20:32:12.883Z,98600.09
2023-05-13T20:34:39.861Z,98603.50
2023-05-13T20:37:06.685Z,98603.59
2023-05-13T20:39:33.332Z,98597.91
2023-05-13T20:41:59.960Z,98590.69
2023-05-13T20:44:26.640Z,98596.19
2023-05-13T20:46:53.372Z,98596.47
2023-05-13T20:49:20.042Z,98594.81
2023-05-13T20:51:48.140Z,98597.63
2023-05-13T20:54:15.301Z,98595.91
2023-05-13T20:56:41.952Z,98596.88
2023-05-13T20:59:08.882Z,98593.66
2023-05-13T21:01:36.101Z,98585.06
2023-05-13T21:04:05.853Z,98588.44
2023-05-13T21:06:32.962Z,98588.03
2023-05-13T21:08:59.580Z,98586.88
2023-05-13T21:11:26.466Z,98587.41
2023-05-13T21:13:53.194Z,98584.78
2023-05-13T21:16:19.858Z,98578.66
2023-05-13T21:18:46.683Z,98578.31
2023-05-13T21:21:13.336Z,98586.31
2023-05-13T21:23:42.434Z,98578.91
2023-05-13T21:26:13.176Z,98576.91
2023-05-13T21:28:40.000Z,98569.66
2023-05-13T21:31:07.151Z,98566.78
2023-05-13T21:33:33.887Z,98574.19
2023-05-13T21:36:00.481Z,98576.00
2023-05-13T21:38:27.259Z,98573.28
2023-05-13T21:40:54.441Z,98580.28
2023-05-13T21:43:21.114Z,98569.97
2023-05-13T21:45:48.135Z,98575.25
2023-05-13T21:48:15.162Z,98569.97
2023-05-13T21:50:41.998Z,98577.41
2023-05-13T21:53:08.647Z,98586.47
2023-05-13T21:55:35.247Z,98572.06
2023-05-13T21:58:02.955Z,98582.41
2023-05-13T22:00:30.145Z,98574.16
2023-05-13T22:03:01.278Z,98575.84
2023-05-13T22:05:28.314Z,98575.16
2023-05-13T22:07:55.133Z,98570.50
2023-05-13T22:10:21.896Z,98578.50
2023-05-13T22:12:48.736Z,98566.84
2023-05-13T22:15:15.714Z,98566.25
2023-05-13T22:17:42.462Z,98558.25
2023-05-13T22:20:09.535Z,98546.50
2023-05-13T22:22:36.211Z,98544.56
2023-05-13T22:25:03.347Z,98548.56
2023-05-13T22:27:30.092Z,98553.69
2023-05-13T22:29:56.821Z,98559.41
2023-05-13T22:32:23.651Z,98550.84
2023-05-13T22:34:50.832Z,98551.59
2023-05-13T22:37:17.440Z,98557.91
2023-05-13T22:39:44.243Z,98557.34
2023-05-13T22:42:11.062Z,98553.19
2023-05-13T22:44:38.700Z,98557.34
2023-05-13T22:47:05.924Z,98551.16
2023-05-13T22:49:32.559Z,98556.72
2023-05-13T22:51:59.236Z,98549.56
2023-05-13T22:54:25.963Z,98552.44
2023-05-13T22:56:52.662Z,98553.53
2023-05-13T22:59:19.335Z,98550.75
2023-05-13T23:01:46.111Z,98544.84
2023-05-13T23:04:12.920Z,98545.03
2023-05-13T23:06:39.578Z,98538.06
2023-05-13T23:09:07.459Z,98546.84
2023-05-13T23:11:36.116Z,98545.19
2023-05-13T23:14:02.752Z,98537.22
2023-05-13T23:16:29.567Z,98538.34
2023-05-13T23:18:56.330Z,98531.59
2023-05-13T23:21:23.021Z,98534.69
2023-05-13T23:23:50.353Z,98530.53
2023-05-13T23:26:17.143Z,98530.16
2023-05-13T23:28:43.829Z,98534.56
2023-05-13T23:31:10.607Z,98532.56
2023-05-13T23:33:37.281Z,98524.47
2023-05-13T23:36:04.183Z,98517.50
2023-05-13T23:38:30.825Z,98514.13
2023-05-13T23:40:57.477Z,98524.81
2023-05-13T23:43:24.077Z,98521.56
2023-05-13T23:45:50.935Z,98526.31
2023-05-13T23:48:17.619Z,98520.16
2023-05-13T23:50:44.350Z,98511.50
2023-05-13T23:53:11.008Z,98510.16
2023-05-13T23:55:37.650Z,98512.53
2023-05-13T23:58:04.430Z,98507.22
